createdAt,value
2022-12-19T00:01:12.557Z,102222.53
2022-12-19T00:03:57.238Z,102231.75
2022-12-19T00:06:48.754Z,102231.00
2022-12-19T00:09:17.848Z,102237.22
2022-12-19T00:11:48.157Z,102246.22
2022-12-19T00:14:16.273Z,102251.72
2022-12-19T00:16:45.880Z,102255.97
2022-12-19T00:19:15.647Z,102249.12
2022-12-19T00:21:44.394Z,102249.03
2022-12-19T00:24:20.743Z,102243.97
2022-12-19T00:26:50.524Z,102240.28
2022-12-19T00:29:18.734Z,102247.78
2022-12-19T00:31:46.818Z,102242.25
2022-12-19T00:34:41.807Z,102235.16
2022-12-19T00:41:36.075Z,102242.00
2022-12-19T00:44:43.883Z,102242.34
2022-12-19T00:47:43.351Z,102248.31
2022-12-19T00:50:12.840Z,102250.37
2022-12-19T00:52:40.478Z,102242.72
2022-12-19T00:55:10.855Z,102233.00
2022-12-19T00:57:46.917Z,102237.84
2022-12-19T01:00:15.739Z,102236.47
2022-12-19T01:02:45.255Z,102240.50
2022-12-19T01:05:13.497Z,102236.19
2022-12-19T01:07:53.049Z,102229.44
2022-12-19T01:10:37.007Z,102228.25
2022-12-19T01:13:26.558Z,102226.78
2022-12-19T01:16:16.589Z,102221.06
2022-12-19T01:18:46.664Z,102221.91
2022-12-19T01:21:37.522Z,102220.81
2022-12-19T01:24:07.067Z,102210.44
2022-12-19T01:26:50.633Z,102205.38
2022-12-19T01:29:30.402Z,102195.84
2022-12-19T01:32:11.386Z,102201.59
2022-12-19T01:35:05.625Z,102193.81
2022-12-19T01:38:08.114Z,102191.25
2022-12-19T01:40:36.685Z,102192.06
2022-12-19T01:43:53.732Z,102186.78
2022-12-19T01:46:48.852Z,102185.41
2022-12-19T01:49:35.869Z,102184.44
2022-12-19T01:52:23.658Z,102180.00
2022-12-19T01:55:26.738Z,102184.59
2022-12-19T01:58:08.575Z,102183.72
2022-12-19T02:00:39.098Z,102195.87
2022-12-19T02:03:27.992Z,102178.97
2022-12-19T02:05:59.015Z,102176.47
2022-12-19T02:08:50.988Z,102186.25
2022-12-19T02:11:20.750Z,102186.09
2022-12-19T02:13:49.571Z,102181.47
2022-12-19T02:16:38.108Z,102179.59
2022-12-19T02:19:31.402Z,102185.19
2022-12-19T02:22:01.729Z,102184.22
2022-12-19T02:25:05.394Z,102186.19
2022-12-19T02:27:51.590Z,102185.00
2022-12-19T02:30:38.182Z,102188.56
2022-12-19T02:33:19.508Z,102192.72
2022-12-19T02:35:53.870Z,102193.00
2022-12-19T02:38:33.953Z,102196.72
2022-12-19T02:41:21.067Z,102200.25
2022-12-19T02:47:52.482Z,102202.69
2022-12-19T02:50:21.645Z,102201.44
2022-12-19T02:52:53.402Z,102198.84
2022-12-19T02:56:36.298Z,102191.41
2022-12-19T02:59:40.598Z,102201.12
2022-12-19T03:02:50.443Z,102189.75
2022-12-19T03:05:57.417Z,102195.16
2022-12-19T03:08:35.594Z,102192.44
2022-12-19T03:11:08.896Z,102186.72
2022-12-19T03:14:01.469Z,102183.66
2022-12-19T03:16:30.792Z,102181.97
2022-12-19T03:18:59.838Z,102178.53
2022-12-19T03:21:43.938Z,102177.19
2022-12-19T03:24:35.816Z,102173.38
2022-12-19T03:27:21.898Z,102161.78
2022-12-19T03:30:14.117Z,102161.53
2022-12-19T03:32:53.727Z,102154.59
2022-12-19T03:35:46.051Z,102151.72
2022-12-19T03:38:26.640Z,102139.69
2022-12-19T03:41:10.547Z,102148.63
2022-12-19T03:44:06.024Z,102156.44
2022-12-19T03:46:52.005Z,102149.47
2022-12-19T03:49:43.598Z,102148.50
2022-12-19T03:53:06.488Z,102160.59
2022-12-19T03:56:30.928Z,102163.75
2022-12-19T03:59:05.172Z,102157.81
2022-12-19T04:02:01.519Z,102157.41
2022-12-19T04:04:57.518Z,102149.81
2022-12-19T04:07:39.226Z,102154.91
2022-12-19T04:10:28.626Z,102155.44
2022-12-19T04:13:12.095Z,102163.53
2022-12-19T04:15:54.345Z,102153.91
2022-12-19T04:18:23.436Z,102154.16
2022-12-19T04:21:32.218Z,102162.16
2022-12-19T04:24:25.787Z,102165.53
2022-12-19T04:27:15.257Z,102159.66
2022-12-19T04:30:06.574Z,102160.41
2022-12-19T04:32:35.916Z,102159.88
2022-12-19T04:35:23.988Z,102165.91
2022-12-19T04:37:53.937Z,102157.31
2022-12-19T04:40:22.915Z,102153.34
2022-12-19T04:43:25.028Z,102144.44
2022-12-19T04:46:04.727Z,102143.94
2022-12-19T04:49:19.179Z,102143.56
2022-12-19T04:52:06.823Z,102147.72
2022-12-19T04:55:14.671Z,102141.53
2022-12-19T04:57:55.402Z,102154.12
2022-12-19T05:00:48.130Z,102158.84
2022-12-19T05:04:15.553Z,102160.62
2022-12-19T05:07:20.933Z,102165.19
2022-12-19T05:10:08.598Z,102162.00
2022-12-19T05:13:09.257Z,102158.81
2022-12-19T05:16:09.185Z,102160.19
2022-12-19T05:18:38.587Z,102166.47
2022-12-19T05:21:07.683Z,102176.91
2022-12-19T05:23:59.403Z,102177.34
2022-12-19T05:26:40.335Z,102175.53
2022-12-19T05:29:19.383Z,102159.59
2022-12-19T05:31:47.209Z,102154.06
2022-12-19T05:34:40.335Z,102161.12
2022-12-19T05:37:19.768Z,102146.81
2022-12-19T05:40:13.843Z,102141.53
2022-12-19T05:42:55.608Z,102140.50
2022-12-19T05:45:50.505Z,102145.97
2022-12-19T05:48:20.270Z,102154.50
2022-12-19T05:51:11.582Z,102142.91
2022-12-19T05:53:41.792Z,102142.06
2022-12-19T05:56:36.587Z,102133.88
2022-12-19T05:59:21.761Z,102138.16
2022-12-19T06:02:16.573Z,102139.41
2022-12-19T06:05:16.347Z,102141.00
2022-12-19T06:08:02.475Z,102149.69
2022-12-19T06:10:56.593Z,102151.13
2022-12-19T06:13:37.603Z,102160.16
2022-12-19T06:16:41.710Z,102164.47
2022-12-19T06:19:12.024Z,102163.00
2022-12-19T06:21:47.909Z,102165.69
2022-12-19T06:24:25.482Z,102158.56
2022-12-19T06:31:23.435Z,102163.19
2022-12-19T06:34:09.937Z,102155.19
2022-12-19T06:36:56.270Z,102166.91
2022-12-19T06:39:40.535Z,102170.00
2022-12-19T06:42:35.540Z,102180.41
2022-12-19T06:45:15.644Z,102179.78
2022-12-19T06:47:59.141Z,102178.59
2022-12-19T06:50:48.428Z,102177.72
2022-12-19T06:53:36.560Z,102160.97
2022-12-19T06:56:07.423Z,102165.31
2022-12-19T06:58:39.515Z,102166.69
2022-12-19T07:01:08.441Z,102165.91
2022-12-19T07:03:40.130Z,102181.44
2022-12-19T07:06:09.342Z,102178.22
2022-12-19T07:08:55.544Z,102176.72
2022-12-19T07:11:47.491Z,102182.22
2022-12-19T07:14:42.418Z,102190.03
2022-12-19T07:17:23.639Z,102183.22
2022-12-19T07:20:11.298Z,102188.41
2022-12-19T07:23:11.079Z,102181.56
2022-12-19T07:26:03.413Z,102189.94
2022-12-19T07:29:05.861Z,102179.03
2022-12-19T07:34:13.846Z,102181.34
2022-12-19T07:36:41.894Z,102179.66
2022-12-19T07:39:12.955Z,102178.75
2022-12-19T07:41:42.671Z,102177.69
2022-12-19T07:44:13.362Z,102180.03
2022-12-19T07:46:43.271Z,102172.81
2022-12-19T07:49:21.112Z,102170.62
2022-12-19T07:51:54.561Z,102178.09
2022-12-19T07:54:24.886Z,102184.41
2022-12-19T07:56:53.273Z,102188.75
2022-12-19T07:59:28.902Z,102189.50
2022-12-19T08:01:59.610Z,102198.00
2022-12-19T08:04:29.439Z,102201.62
2022-12-19T08:09:34.001Z,102202.66
2022-12-19T08:14:54.146Z,102204.84
2022-12-19T08:17:30.343Z,102205.47
2022-12-19T08:20:01.465Z,102216.41
2022-12-19T08:22:33.517Z,102229.25
2022-12-19T08:25:05.793Z,102226.66
2022-12-19T08:27:36.257Z,102215.25
2022-12-19T08:30:14.131Z,102215.66
2022-12-19T08:32:46.275Z,102206.97
2022-12-19T08:35:15.389Z,102210.88
2022-12-19T08:37:43.268Z,102206.28
2022-12-19T08:40:12.764Z,102194.25
2022-12-19T08:42:41.977Z,102189.63
2022-12-19T08:45:09.928Z,102182.09
2022-12-19T08:47:39.570Z,102183.38
2022-12-19T08:50:19.286Z,102181.16
2022-12-19T08:52:47.854Z,102180.38
2022-12-19T08:55:16.140Z,102190.81
2022-12-19T08:57:44.261Z,102187.41
2022-12-19T09:00:13.467Z,102178.69
2022-12-19T09:02:43.283Z,102194.12
2022-12-19T09:06:03.384Z,102198.38
2022-12-19T09:08:02.469Z,102187.75
2022-12-19T09:10:39.271Z,102182.78
2022-12-19T09:13:09.180Z,102174.44
2022-12-19T09:15:36.994Z,102164.66
2022-12-19T09:18:07.378Z,102169.66
2022-12-19T09:20:35.592Z,102176.59
2022-12-19T09:23:06.474Z,102179.84
2022-12-19T09:25:35.825Z,102202.66
2022-12-19T09:31:06.629Z,102196.56
2022-12-19T09:33:42.890Z,102189.59
2022-12-19T09:36:23.455Z,102179.19
2022-12-19T09:38:56.739Z,102172.16
2022-12-19T09:41:41.846Z,102161.94
2022-12-19T09:44:31.335Z,102162.63
2022-12-19T09:47:04.431Z,102163.22
2022-12-19T09:49:52.557Z,102165.06
2022-12-19T09:52:44.310Z,102147.09
2022-12-19T09:55:16.789Z,102148.87
2022-12-19T09:57:52.727Z,102140.81
2022-12-19T10:00:22.274Z,102132.38
2022-12-19T10:03:06.087Z,102137.06
2022-12-19T10:07:16.372Z,102137.38
2022-12-19T10:09:37.393Z,102127.22
2022-12-19T10:12:38.769Z,102123.84
2022-12-19T10:14:55.996Z,102116.41
2022-12-19T10:17:45.069Z,102118.28
2022-12-19T10:20:39.311Z,102118.78
2022-12-19T10:23:47.968Z,102129.06
2022-12-19T10:26:23.376Z,102133.59
2022-12-19T10:29:05.560Z,102127.25
2022-12-19T10:31:46.320Z,102106.09
2022-12-19T10:34:40.749Z,102112.56
2022-12-19T10:37:35.193Z,102099.91
2022-12-19T10:40:28.233Z,102091.09
2022-12-19T10:43:10.968Z,102090.09
2022-12-19T10:45:47.226Z,102093.84
2022-12-19T10:48:30.292Z,102099.81
2022-12-19T10:51:05.124Z,102094.41
2022-12-19T10:53:38.239Z,102093.88
2022-12-19T10:56:15.550Z,102096.84
2022-12-19T10:58:58.852Z,102092.25
2022-12-19T11:01:38.844Z,102086.91
2022-12-19T11:04:28.280Z,102088.00
2022-12-19T11:07:05.508Z,102078.72
2022-12-19T11:09:45.994Z,102078.53
2022-12-19T11:18:37.854Z,102072.97
2022-12-19T11:19:15.805Z,102069.22
2022-12-19T11:26:05.675Z,102065.84
2022-12-19T11:29:41.075Z,102076.19
2022-12-19T11:29:46.426Z,102074.13
2022-12-19T11:30:46.605Z,102067.37
2022-12-19T11:32:45.494Z,102061.19
2022-12-19T11:35:24.852Z,102059.94
2022-12-19T11:38:00.462Z,102054.53
2022-12-19T11:40:49.846Z,102056.00
2022-12-19T11:43:44.940Z,102062.97
2022-12-19T11:46:24.415Z,102045.28
2022-12-19T11:49:26.370Z,102037.28
2022-12-19T11:53:03.466Z,102039.63
2022-12-19T11:55:48.606Z,102034.88
2022-12-19T11:58:23.348Z,102028.78
2022-12-19T12:01:23.959Z,102024.16
2022-12-19T12:04:12.290Z,102026.81
2022-12-19T12:06:52.262Z,102025.19
2022-12-19T12:12:12.855Z,102028.66
2022-12-19T12:19:11.148Z,102024.47
2022-12-19T12:24:49.812Z,102015.28
2022-12-19T12:31:08.619Z,102019.78
2022-12-19T12:31:47.564Z,101995.44
2022-12-19T12:32:03.368Z,102012.25
2022-12-19T12:35:16.165Z,102012.41
2022-12-19T12:37:13.827Z,101999.47
2022-12-19T12:38:23.697Z,101995.75
2022-12-19T12:41:13.223Z,102000.25
2022-12-19T12:44:09.593Z,102004.84
2022-12-19T12:46:46.212Z,102003.97
2022-12-19T12:49:32.674Z,102008.81
2022-12-19T12:52:06.043Z,102013.91
2022-12-19T12:54:34.723Z,102001.72
2022-12-19T12:57:04.183Z,101997.81
2022-12-19T12:59:34.425Z,101996.44
2022-12-19T13:02:22.839Z,101981.38
2022-12-19T13:05:01.225Z,101983.53
2022-12-19T13:07:47.226Z,101984.00
2022-12-19T13:10:25.193Z,101975.56
2022-12-19T13:13:15.009Z,101979.56
2022-12-19T13:15:46.223Z,101979.84
2022-12-19T13:18:33.096Z,101964.72
2022-12-19T13:21:05.311Z,101970.69
2022-12-19T13:23:46.206Z,101978.81
2022-12-19T13:26:46.323Z,101969.03
2022-12-19T13:29:28.483Z,101967.88
2022-12-19T13:32:24.434Z,101966.00
2022-12-19T13:36:32.198Z,101961.53
2022-12-19T13:39:57.947Z,101966.13
2022-12-19T13:41:49.821Z,101951.22
2022-12-19T13:44:23.340Z,101950.91
2022-12-19T13:46:52.189Z,101929.19
2022-12-19T13:49:35.269Z,101936.13
2022-12-19T13:52:05.130Z,101947.88
2022-12-19T13:54:45.308Z,101960.66
2022-12-19T13:57:28.360Z,101962.16
2022-12-19T14:00:07.533Z,101962.19
2022-12-19T14:02:47.339Z,101949.56
2022-12-19T14:06:16.874Z,101952.37
2022-12-19T14:08:28.473Z,101943.69
2022-12-19T14:11:35.031Z,101950.59
2022-12-19T14:14:27.702Z,101956.72
2022-12-19T14:17:09.362Z,101959.69
2022-12-19T14:19:41.127Z,101946.66
2022-12-19T14:22:26.032Z,101955.84
2022-12-19T14:25:44.126Z,101952.53
2022-12-19T14:28:18.708Z,101946.44
2022-12-19T14:31:02.369Z,101944.31
2022-12-19T14:33:47.897Z,101941.09
2022-12-19T14:36:30.251Z,101936.00
2022-12-19T14:39:24.040Z,101939.69
2022-12-19T14:42:12.881Z,101952.25
2022-12-19T14:52:35.041Z,101940.22
2022-12-19T14:54:15.505Z,101947.00
2022-12-19T14:54:21.706Z,101938.19
2022-12-19T14:54:24.629Z,101936.47
2022-12-19T14:56:36.265Z,101936.56
2022-12-19T14:59:44.144Z,101946.91
2022-12-19T15:02:32.434Z,101947.63
2022-12-19T15:05:05.392Z,101945.59
2022-12-19T15:07:43.067Z,101941.34
2022-12-19T15:11:05.009Z,101945.22
2022-12-19T15:14:51.088Z,101957.66
2022-12-19T15:16:32.358Z,101954.41
2022-12-19T15:19:06.150Z,101951.28
2022-12-19T15:21:36.148Z,101951.59
2022-12-19T15:24:05.910Z,101956.88
2022-12-19T15:26:54.161Z,101952.34
2022-12-19T15:29:43.570Z,101950.47
2022-12-19T15:32:15.986Z,101959.53
2022-12-19T15:35:32.352Z,101956.56
2022-12-19T15:38:30.188Z,101968.66
2022-12-19T15:41:14.357Z,101967.97
2022-12-19T15:44:03.706Z,101973.72
2022-12-19T15:46:57.183Z,101970.34
2022-12-19T15:49:48.498Z,101957.22
2022-12-19T15:52:59.337Z,101965.66
2022-12-19T15:55:52.502Z,101950.00
2022-12-19T15:58:21.108Z,101954.84
2022-12-19T16:00:57.361Z,101950.06
2022-12-19T16:03:26.915Z,101952.53
2022-12-19T16:05:57.927Z,101951.63
2022-12-19T16:08:30.077Z,101942.31
2022-12-19T16:11:07.099Z,101948.37
2022-12-19T16:13:36.458Z,101954.00
2022-12-19T16:16:13.054Z,101953.03
2022-12-19T16:18:49.104Z,101942.03
2022-12-19T16:21:33.592Z,101941.56
2022-12-19T16:24:08.677Z,101947.25
2022-12-19T16:26:43.342Z,101942.03
2022-12-19T16:29:42.094Z,101943.75
2022-12-19T16:32:14.084Z,101927.78
2022-12-19T16:37:31.945Z,101932.81
2022-12-19T16:42:44.043Z,101916.50
2022-12-19T16:45:19.082Z,101924.59
2022-12-19T16:47:49.282Z,101918.37
2022-12-19T16:50:36.897Z,101919.19
2022-12-19T16:53:04.982Z,101918.03
2022-12-19T16:55:35.099Z,101911.47
2022-12-19T17:00:56.240Z,101913.31
2022-12-19T17:03:34.627Z,101918.28
2022-12-19T17:06:03.307Z,101913.94
2022-12-19T17:08:39.122Z,101928.66
2022-12-19T17:11:15.174Z,101927.97
2022-12-19T17:13:50.108Z,101929.91
2022-12-19T17:16:22.130Z,101926.84
2022-12-19T17:18:54.130Z,101919.47
2022-12-19T17:21:37.111Z,101928.87
2022-12-19T17:24:16.161Z,101923.75
2022-12-19T17:26:47.361Z,101916.50
2022-12-19T17:29:16.843Z,101927.31
2022-12-19T17:31:48.124Z,101916.00
2022-12-19T17:34:27.073Z,101935.41
2022-12-19T17:37:03.456Z,101937.72
2022-12-19T17:39:35.059Z,101941.44
2022-12-19T17:42:29.764Z,101930.28
2022-12-19T17:45:09.349Z,101935.59
2022-12-19T17:47:44.764Z,101930.44
2022-12-19T17:50:28.134Z,101940.19
2022-12-19T17:52:59.220Z,101940.25
2022-12-19T17:55:34.085Z,101939.19
2022-12-19T18:00:41.202Z,101938.31
2022-12-19T18:03:25.881Z,101935.59
2022-12-19T18:05:59.410Z,101940.16
2022-12-19T18:08:33.047Z,101936.59
2022-12-19T18:11:11.104Z,101937.94
2022-12-19T18:13:44.169Z,101946.81
2022-12-19T18:16:15.269Z,101940.38
2022-12-19T18:18:47.096Z,101936.59
2022-12-19T18:21:19.337Z,101940.41
2022-12-19T18:23:57.332Z,101930.75
2022-12-19T18:26:29.045Z,101934.63
2022-12-19T18:29:06.584Z,101938.31
2022-12-19T18:31:50.928Z,101934.22
2022-12-19T18:34:24.140Z,101938.22
2022-12-19T18:36:58.440Z,101932.69
2022-12-19T18:39:29.071Z,101931.13
2022-12-19T18:44:44.389Z,101902.69
2022-12-19T18:47:23.990Z,101916.53
2022-12-19T18:49:57.055Z,101902.25
2022-12-19T18:52:29.266Z,101899.44
2022-12-19T18:55:01.076Z,101896.28
2022-12-19T18:57:43.195Z,101887.28
2022-12-19T19:00:28.032Z,101891.69
2022-12-19T19:03:05.247Z,101890.44
2022-12-19T19:05:39.910Z,101881.44
2022-12-19T19:08:29.673Z,101880.44
2022-12-19T19:10:59.994Z,101880.28
2022-12-19T19:13:29.187Z,101874.31
2022-12-19T19:16:01.850Z,101879.41
2022-12-19T19:18:40.421Z,101875.88
2022-12-19T19:21:14.083Z,101883.66
2022-12-19T19:23:50.422Z,101890.87
2022-12-19T19:29:01.854Z,101878.81
2022-12-19T19:31:46.647Z,101874.50
2022-12-19T19:34:27.559Z,101881.03
2022-12-19T19:36:58.482Z,101878.72
2022-12-19T19:39:29.279Z,101880.03
2022-12-19T19:41:59.140Z,101880.78
2022-12-19T19:47:13.328Z,101853.19
2022-12-19T19:49:42.728Z,101858.25
2022-12-19T19:52:13.111Z,101856.22
2022-12-19T19:54:43.144Z,101864.06
2022-12-19T19:57:14.186Z,101863.47
2022-12-19T20:02:31.727Z,101856.28
2022-12-19T20:05:10.127Z,101857.91
2022-12-19T20:07:38.433Z,101857.03
2022-12-19T20:10:08.461Z,101863.84
2022-12-19T20:12:49.097Z,101870.28
2022-12-19T20:15:24.549Z,101865.78
2022-12-19T20:17:57.136Z,101867.66
2022-12-19T20:20:31.315Z,101874.00
2022-12-19T20:25:46.974Z,101876.41
2022-12-19T20:28:17.967Z,101872.44
2022-12-19T20:30:52.031Z,101872.16
2022-12-19T20:33:30.471Z,101870.25
2022-12-19T20:38:52.103Z,101858.13
2022-12-19T20:41:24.718Z,101856.22
2022-12-19T20:43:53.596Z,101850.50
2022-12-19T20:46:25.100Z,101849.44
2022-12-19T20:49:00.173Z,101846.34
2022-12-19T20:51:31.996Z,101839.00
2022-12-19T20:54:08.835Z,101843.66
2022-12-19T20:56:37.983Z,101840.34
2022-12-19T20:59:07.255Z,101845.47
2022-12-19T21:01:35.299Z,101852.56
2022-12-19T21:06:39.399Z,101839.25
2022-12-19T21:09:10.544Z,101844.97
2022-12-19T21:11:40.127Z,101842.84
2022-12-19T21:14:17.003Z,101835.00
2022-12-19T21:16:46.177Z,101837.72
2022-12-19T21:19:17.119Z,101841.84
2022-12-19T21:21:51.408Z,101834.84
2022-12-19T21:24:21.088Z,101836.72
2022-12-19T21:26:57.735Z,101843.47
2022-12-19T21:29:31.031Z,101844.09
2022-12-19T21:31:58.999Z,101835.72
2022-12-19T21:34:27.152Z,101836.63
2022-12-19T21:36:58.473Z,101838.78
2022-12-19T21:39:28.433Z,101844.00
2022-12-19T21:42:13.939Z,101835.16
2022-12-19T21:44:44.010Z,101826.06
2022-12-19T21:47:15.244Z,101828.38
2022-12-19T21:49:43.477Z,101826.44
2022-12-19T21:52:13.354Z,101830.84
2022-12-19T21:54:41.091Z,101825.22
2022-12-19T21:57:16.435Z,101829.47
2022-12-19T21:59:44.912Z,101833.94
2022-12-19T22:02:13.382Z,101838.69
2022-12-19T22:04:41.583Z,101840.00
2022-12-19T22:07:09.491Z,101836.63
2022-12-19T22:09:40.429Z,101836.94
2022-12-19T22:12:11.035Z,101826.09
2022-12-19T22:14:42.005Z,101811.44
2022-12-19T22:17:18.230Z,101818.16
2022-12-19T22:19:49.307Z,101817.28
2022-12-19T22:22:21.290Z,101812.47
2022-12-19T22:24:49.380Z,101808.91
2022-12-19T22:27:18.329Z,101807.69
2022-12-19T22:29:46.144Z,101802.13
2022-12-19T22:32:14.690Z,101795.56
2022-12-19T22:34:42.701Z,101788.50
2022-12-19T22:37:15.618Z,101788.09
2022-12-19T22:39:52.223Z,101782.41
2022-12-19T22:42:21.633Z,101787.22
2022-12-19T22:44:49.985Z,101782.87
2022-12-19T22:47:17.679Z,101771.72
2022-12-19T22:49:46.151Z,101762.28
2022-12-19T22:52:15.706Z,101755.72
2022-12-19T22:54:43.435Z,101753.59
2022-12-19T22:57:12.009Z,101750.41
2022-12-19T22:59:40.576Z,101754.00
2022-12-19T23:02:08.953Z,101748.22
2022-12-19T23:04:38.207Z,101742.22
2022-12-19T23:07:09.554Z,101731.97
2022-12-19T23:09:37.276Z,101730.12
2022-12-19T23:12:05.534Z,101744.06
2022-12-19T23:14:33.490Z,101752.94
2022-12-19T23:17:01.096Z,101758.31
2022-12-19T23:19:29.461Z,101742.19
2022-12-19T23:21:57.601Z,101741.97
2022-12-19T23:24:27.069Z,101739.63
2022-12-19T23:26:55.317Z,101735.28
2022-12-19T23:29:27.123Z,101739.91
2022-12-19T23:31:56.182Z,101740.62
2022-12-19T23:34:26.262Z,101745.59
2022-12-19T23:37:10.117Z,101748.28
2022-12-19T23:39:38.893Z,101743.13
2022-12-19T23:42:17.054Z,101742.81
2022-12-19T23:44:46.233Z,101738.09
2022-12-19T23:47:15.075Z,101728.78
2022-12-19T23:49:42.848Z,101723.22
2022-12-19T23:52:11.376Z,101721.22
2022-12-19T23:54:39.189Z,101715.13
2022-12-19T23:57:07.285Z,101721.94
2022-12-19T23:59:36.120Z,101722.25
